sensor_id;sensor_type;location;lat;lon;timestamp;temperature;humidity
12893;DHT22;6514;48.606;9.222;2023-11-19T00:01:33;7.50;99.90
12893;DHT22;6514;48.606;9.222;2023-11-19T00:04:00;7.50;99.90
12893;DHT22;6514;48.606;9.222;2023-11-19T00:06:28;7.50;99.90
12893;DHT22;6514;48.606;9.222;2023-11-19T00:08:56;7.50;99.90
12893;DHT22;6514;48.606;9.222;2023-11-19T00:11:23;7.50;99.90
12893;DHT22;6514;48.606;9.222;2023-11-19T00:13:50;7.50;99.90
12893;DHT22;6514;48.606;9.222;2023-11-19T00:16:16;7.60;99.90
12893;DHT22;6514;48.606;9.222;2023-11-19T00:18:43;7.70;99.90
12893;DHT22;6514;48.606;9.222;2023-11-19T00:21:10;7.70;99.90
12893;DHT22;6514;48.606;9.222;2023-11-19T00:23:37;7.80;99.90
12893;DHT22;6514;48.606;9.222;2023-11-19T00:26:05;7.80;99.90
12893;DHT22;6514;48.606;9.222;2023-11-19T00:28:32;7.80;99.90
12893;DHT22;6514;48.606;9.222;2023-11-19T00:30:59;7.90;99.90
12893;DHT22;6514;48.606;9.222;2023-11-19T00:33:26;7.90;99.90
12893;DHT22;6514;48.606;9.222;2023-11-19T00:35:53;7.90;99.90
12893;DHT22;6514;48.606;9.222;2023-11-19T00:38:21;7.90;99.90
12893;DHT22;6514;48.606;9.222;2023-11-19T00:40:48;8.00;99.90
12893;DHT22;6514;48.606;9.222;2023-11-19T00:43:16;8.00;99.90
12893;DHT22;6514;48.606;9.222;2023-11-19T00:45:44;8.00;99.90
12893;DHT22;6514;48.606;9.222;2023-11-19T00:48:11;8.00;99.90
12893;DHT22;6514;48.606;9.222;2023-11-19T00:50:38;8.10;99.90
12893;DHT22;6514;48.606;9.222;2023-11-19T00:53:09;8.00;99.90
12893;DHT22;6514;48.606;9.222;2023-11-19T00:55:36;8.10;99.90
12893;DHT22;6514;48.606;9.222;2023-11-19T00:58:03;8.10;99.90
12893;DHT22;6514;48.606;9.222;2023-11-19T01:00:31;8.10;99.90
12893;DHT22;6514;48.606;9.222;2023-11-19T01:02:58;8.10;99.90
12893;DHT22;6514;48.606;9.222;2023-11-19T01:05:25;8.10;99.90
12893;DHT22;6514;48.606;9.222;2023-11-19T01:07:53;8.10;99.90
12893;DHT22;6514;48.606;9.222;2023-11-19T01:10:20;8.10;99.90
12893;DHT22;6514;48.606;9.222;2023-11-19T01:12:47;8.10;99.90
12893;DHT22;6514;48.606;9.222;2023-11-19T01:15:14;8.10;99.90
12893;DHT22;6514;48.606;9.222;2023-11-19T01:17:45;8.10;99.90
12893;DHT22;6514;48.606;9.222;2023-11-19T01:20:12;8.10;99.90
12893;DHT22;6514;48.606;9.222;2023-11-19T01:22:39;8.10;99.90
12893;DHT22;6514;48.606;9.222;2023-11-19T01:25:06;8.20;99.90
12893;DHT22;6514;48.606;9.222;2023-11-19T01:27:33;8.20;99.90
12893;DHT22;6514;48.606;9.222;2023-11-19T01:30:01;8.20;99.90
12893;DHT22;6514;48.606;9.222;2023-11-19T01:32:29;8.20;99.90
12893;DHT22;6514;48.606;9.222;2023-11-19T01:34:57;8.20;99.90
12893;DHT22;6514;48.606;9.222;2023-11-19T01:37:24;8.20;99.90
12893;DHT22;6514;48.606;9.222;2023-11-19T01:39:51;8.20;99.90
12893;DHT22;6514;48.606;9.222;2023-11-19T01:42:17;8.20;99.90
12893;DHT22;6514;48.606;9.222;2023-11-19T01:44:56;8.30;99.90
12893;DHT22;6514;48.606;9.222;2023-11-19T01:47:24;8.30;99.90
12893;DHT22;6514;48.606;9.222;2023-11-19T01:49:51;8.30;99.90
12893;DHT22;6514;48.606;9.222;2023-11-19T01:52:20;8.30;99.90
12893;DHT22;6514;48.606;9.222;2023-11-19T01:54:47;8.40;99.90
12893;DHT22;6514;48.606;9.222;2023-11-19T01:57:14;8.40;99.90
12893;DHT22;6514;48.606;9.222;2023-11-19T01:59:41;8.40;99.90
12893;DHT22;6514;48.606;9.222;2023-11-19T02:02:08;8.50;99.90
12893;DHT22;6514;48.606;9.222;2023-11-19T02:04:35;8.50;99.90
12893;DHT22;6514;48.606;9.222;2023-11-19T02:07:04;8.50;99.90
12893;DHT22;6514;48.606;9.222;2023-11-19T02:09:32;8.50;99.90
12893;DHT22;6514;48.606;9.222;2023-11-19T02:11:59;8.50;99.90
12893;DHT22;6514;48.606;9.222;2023-11-19T02:14:27;8.50;99.90
12893;DHT22;6514;48.606;9.222;2023-11-19T02:16:54;8.50;99.90
12893;DHT22;6514;48.606;9.222;2023-11-19T02:19:21;8.50;99.90
12893;DHT22;6514;48.606;9.222;2023-11-19T02:21:48;8.50;99.90
12893;DHT22;6514;48.606;9.222;2023-11-19T02:24:16;8.60;99.90
12893;DHT22;6514;48.606;9.222;2023-11-19T02:26:53;8.60;99.90
12893;DHT22;6514;48.606;9.222;2023-11-19T02:29:26;8.60;99.90
12893;DHT22;6514;48.606;9.222;2023-11-19T02:31:53;8.70;99.90
12893;DHT22;6514;48.606;9.222;2023-11-19T02:34:20;8.70;99.90
12893;DHT22;6514;48.606;9.222;2023-11-19T02:36:47;8.70;99.90
12893;DHT22;6514;48.606;9.222;2023-11-19T02:39:15;8.80;99.90
12893;DHT22;6514;48.606;9.222;2023-11-19T02:41:46;8.80;99.90
12893;DHT22;6514;48.606;9.222;2023-11-19T02:44:16;8.90;99.90
12893;DHT22;6514;48.606;9.222;2023-11-19T02:46:44;8.90;99.90
12893;DHT22;6514;48.606;9.222;2023-11-19T02:49:13;9.00;99.90
12893;DHT22;6514;48.606;9.222;2023-11-19T02:51:40;9.00;99.90
12893;DHT22;6514;48.606;9.222;2023-11-19T02:54:07;9.00;99.90
12893;DHT22;6514;48.606;9.222;2023-11-19T02:56:34;9.10;99.90
12893;DHT22;6514;48.606;9.222;2023-11-19T02:59:03;9.10;99.90
12893;DHT22;6514;48.606;9.222;2023-11-19T03:01:34;9.10;99.90
12893;DHT22;6514;48.606;9.222;2023-11-19T03:04:03;9.10;99.90
12893;DHT22;6514;48.606;9.222;2023-11-19T03:06:30;9.10;99.90
12893;DHT22;6514;48.606;9.222;2023-11-19T03:08:57;9.20;99.90
12893;DHT22;6514;48.606;9.222;2023-11-19T03:11:24;9.20;99.90
12893;DHT22;6514;48.606;9.222;2023-11-19T03:13:51;9.20;99.90
12893;DHT22;6514;48.606;9.222;2023-11-19T03:16:17;9.30;99.90
12893;DHT22;6514;48.606;9.222;2023-11-19T03:18:44;9.30;99.90
12893;DHT22;6514;48.606;9.222;2023-11-19T03:21:12;9.30;99.90
12893;DHT22;6514;48.606;9.222;2023-11-19T03:23:39;9.30;99.90
12893;DHT22;6514;48.606;9.222;2023-11-19T03:26:06;9.40;99.90
12893;DHT22;6514;48.606;9.222;2023-11-19T03:28:34;9.40;99.90
12893;DHT22;6514;48.606;9.222;2023-11-19T03:31:04;9.40;99.90
12893;DHT22;6514;48.606;9.222;2023-11-19T03:33:33;9.40;99.90
12893;DHT22;6514;48.606;9.222;2023-11-19T03:36:00;9.50;99.90
12893;DHT22;6514;48.606;9.222;2023-11-19T03:38:28;9.50;99.90
12893;DHT22;6514;48.606;9.222;2023-11-19T03:40:55;9.50;99.90
12893;DHT22;6514;48.606;9.222;2023-11-19T03:43:22;9.50;99.90
12893;DHT22;6514;48.606;9.222;2023-11-19T03:45:48;9.50;99.90
12893;DHT22;6514;48.606;9.222;2023-11-19T03:48:16;9.50;99.90
12893;DHT22;6514;48.606;9.222;2023-11-19T03:50:42;9.50;99.90
12893;DHT22;6514;48.606;9.222;2023-11-19T03:53:09;9.50;99.90
12893;DHT22;6514;48.606;9.222;2023-11-19T03:55:37;9.50;99.90
12893;DHT22;6514;48.606;9.222;2023-11-19T03:58:04;9.50;99.90
12893;DHT22;6514;48.606;9.222;2023-11-19T04:00:31;9.60;99.90
12893;DHT22;6514;48.606;9.222;2023-11-19T04:02:58;9.60;99.90
12893;DHT22;6514;48.606;9.222;2023-11-19T04:05:25;9.50;99.90
12893;DHT22;6514;48.606;9.222;2023-11-19T04:07:52;9.50;99.90
12893;DHT22;6514;48.606;9.222;2023-11-19T04:10:19;9.50;99.90
12893;DHT22;6514;48.606;9.222;2023-11-19T04:12:49;9.50;99.90
12893;DHT22;6514;48.606;9.222;2023-11-19T04:15:16;9.50;99.90
12893;DHT22;6514;48.606;9.222;2023-11-19T04:17:42;9.50;99.90
12893;DHT22;6514;48.606;9.222;2023-11-19T04:20:10;9.50;99.90
12893;DHT22;6514;48.606;9.222;2023-11-19T04:22:39;9.60;99.90
12893;DHT22;6514;48.606;9.222;2023-11-19T04:25:07;9.60;99.90
12893;DHT22;6514;48.606;9.222;2023-11-19T04:27:33;9.60;99.90
12893;DHT22;6514;48.606;9.222;2023-11-19T04:30:02;9.60;99.90
12893;DHT22;6514;48.606;9.222;2023-11-19T04:32:29;9.60;99.90
12893;DHT22;6514;48.606;9.222;2023-11-19T04:34:56;9.60;99.90
12893;DHT22;6514;48.606;9.222;2023-11-19T04:37:22;9.60;99.90
12893;DHT22;6514;48.606;9.222;2023-11-19T04:39:49;9.60;99.90
12893;DHT22;6514;48.606;9.222;2023-11-19T04:42:16;9.60;99.90
12893;DHT22;6514;48.606;9.222;2023-11-19T04:44:43;9.70;99.90
12893;DHT22;6514;48.606;9.222;2023-11-19T04:47:11;9.70;99.90
12893;DHT22;6514;48.606;9.222;2023-11-19T04:49:40;9.70;99.90
12893;DHT22;6514;48.606;9.222;2023-11-19T04:52:09;9.80;99.90
12893;DHT22;6514;48.606;9.222;2023-11-19T04:54:41;9.80;99.90
12893;DHT22;6514;48.606;9.222;2023-11-19T04:57:07;9.80;99.90
12893;DHT22;6514;48.606;9.222;2023-11-19T04:59:36;9.90;99.90
12893;DHT22;6514;48.606;9.222;2023-11-19T05:02:03;9.90;99.90
12893;DHT22;6514;48.606;9.222;2023-11-19T05:04:32;10.00;99.90
12893;DHT22;6514;48.606;9.222;2023-11-19T05:06:58;9.90;99.90
12893;DHT22;6514;48.606;9.222;2023-11-19T05:09:25;9.90;99.90
12893;DHT22;6514;48.606;9.222;2023-11-19T05:11:52;10.00;99.90
12893;DHT22;6514;48.606;9.222;2023-11-19T05:14:19;10.00;99.90
12893;DHT22;6514;48.606;9.222;2023-11-19T05:16:47;10.00;99.90
12893;DHT22;6514;48.606;9.222;2023-11-19T05:19:13;10.00;99.90
12893;DHT22;6514;48.606;9.222;2023-11-19T05:21:43;10.00;99.90
12893;DHT22;6514;48.606;9.222;2023-11-19T05:24:10;10.00;99.90
12893;DHT22;6514;48.606;9.222;2023-11-19T05:26:37;10.00;99.90
12893;DHT22;6514;48.606;9.222;2023-11-19T05:29:04;10.10;99.90
12893;DHT22;6514;48.606;9.222;2023-11-19T05:31:31;10.10;99.90
12893;DHT22;6514;48.606;9.222;2023-11-19T05:33:58;10.10;99.90
12893;DHT22;6514;48.606;9.222;2023-11-19T05:36:24;10.10;99.90
12893;DHT22;6514;48.606;9.222;2023-11-19T05:38:52;10.10;99.90
12893;DHT22;6514;48.606;9.222;2023-11-19T05:41:19;10.10;99.90
12893;DHT22;6514;48.606;9.222;2023-11-19T05:43:46;10.10;99.90
12893;DHT22;6514;48.606;9.222;2023-11-19T05:46:13;10.10;99.90
12893;DHT22;6514;48.606;9.222;2023-11-19T05:48:40;10.10;99.90
12893;DHT22;6514;48.606;9.222;2023-11-19T05:51:06;10.10;99.90
12893;DHT22;6514;48.606;9.222;2023-11-19T05:53:33;10.10;99.90
12893;DHT22;6514;48.606;9.222;2023-11-19T05:56:01;10.20;99.90
12893;DHT22;6514;48.606;9.222;2023-11-19T05:58:29;10.30;99.90
12893;DHT22;6514;48.606;9.222;2023-11-19T06:00:58;10.30;99.90
12893;DHT22;6514;48.606;9.222;2023-11-19T06:03:25;10.30;99.90
12893;DHT22;6514;48.606;9.222;2023-11-19T06:05:52;10.30;99.90
12893;DHT22;6514;48.606;9.222;2023-11-19T06:08:20;10.40;99.90
12893;DHT22;6514;48.606;9.222;2023-11-19T06:10:47;10.40;99.90
12893;DHT22;6514;48.606;9.222;2023-11-19T06:13:17;10.30;99.90
12893;DHT22;6514;48.606;9.222;2023-11-19T06:15:45;10.40;99.90
12893;DHT22;6514;48.606;9.222;2023-11-19T06:18:12;10.40;99.90
12893;DHT22;6514;48.606;9.222;2023-11-19T06:20:40;10.40;99.90
12893;DHT22;6514;48.606;9.222;2023-11-19T06:23:07;10.40;99.90
12893;DHT22;6514;48.606;9.222;2023-11-19T06:25:34;10.40;99.90
12893;DHT22;6514;48.606;9.222;2023-11-19T06:28:01;10.40;99.90
12893;DHT22;6514;48.606;9.222;2023-11-19T06:30:29;10.40;99.90
12893;DHT22;6514;48.606;9.222;2023-11-19T06:32:57;10.40;99.90
12893;DHT22;6514;48.606;9.222;2023-11-19T06:35:24;10.50;99.90
12893;DHT22;6514;48.606;9.222;2023-11-19T06:37:52;10.50;99.90
12893;DHT22;6514;48.606;9.222;2023-11-19T06:40:18;10.50;99.90
12893;DHT22;6514;48.606;9.222;2023-11-19T06:42:46;10.50;99.90
12893;DHT22;6514;48.606;9.222;2023-11-19T06:45:12;10.50;99.90
12893;DHT22;6514;48.606;9.222;2023-11-19T06:47:41;10.60;99.90
12893;DHT22;6514;48.606;9.222;2023-11-19T06:50:08;10.50;99.90
12893;DHT22;6514;48.606;9.222;2023-11-19T06:52:35;10.50;99.90
12893;DHT22;6514;48.606;9.222;2023-11-19T06:55:03;10.50;99.90
12893;DHT22;6514;48.606;9.222;2023-11-19T06:57:30;10.50;99.90
12893;DHT22;6514;48.606;9.222;2023-11-19T06:59:57;10.60;99.90
12893;DHT22;6514;48.606;9.222;2023-11-19T07:02:24;11.90;99.90
12893;DHT22;6514;48.606;9.222;2023-11-19T07:04:52;10.60;99.90
12893;DHT22;6514;48.606;9.222;2023-11-19T07:07:20;10.60;99.90
12893;DHT22;6514;48.606;9.222;2023-11-19T07:09:46;10.60;99.90
12893;DHT22;6514;48.606;9.222;2023-11-19T07:12:13;10.60;99.90
12893;DHT22;6514;48.606;9.222;2023-11-19T07:14:41;10.60;99.90
12893;DHT22;6514;48.606;9.222;2023-11-19T07:17:09;10.60;99.90
12893;DHT22;6514;48.606;9.222;2023-11-19T07:19:36;10.60;99.90
12893;DHT22;6514;48.606;9.222;2023-11-19T07:22:05;10.70;99.90
12893;DHT22;6514;48.606;9.222;2023-11-19T07:24:33;10.70;99.90
12893;DHT22;6514;48.606;9.222;2023-11-19T07:26:59;10.80;99.90
12893;DHT22;6514;48.606;9.222;2023-11-19T07:29:28;10.70;99.90
12893;DHT22;6514;48.606;9.222;2023-11-19T07:31:55;10.70;99.90
12893;DHT22;6514;48.606;9.222;2023-11-19T07:34:22;10.70;99.90
12893;DHT22;6514;48.606;9.222;2023-11-19T07:36:49;10.70;99.90
12893;DHT22;6514;48.606;9.222;2023-11-19T07:39:17;10.80;99.90
12893;DHT22;6514;48.606;9.222;2023-11-19T07:41:44;10.80;99.90
12893;DHT22;6514;48.606;9.222;2023-11-19T07:44:10;10.80;99.90
12893;DHT22;6514;48.606;9.222;2023-11-19T07:46:37;10.80;99.90
12893;DHT22;6514;48.606;9.222;2023-11-19T07:49:04;10.90;99.90
12893;DHT22;6514;48.606;9.222;2023-11-19T07:51:31;10.90;99.90
12893;DHT22;6514;48.606;9.222;2023-11-19T07:53:58;10.90;99.90
12893;DHT22;6514;48.606;9.222;2023-11-19T07:56:26;10.80;99.90
12893;DHT22;6514;48.606;9.222;2023-11-19T07:58:53;10.90;99.90
12893;DHT22;6514;48.606;9.222;2023-11-19T08:01:19;10.90;99.90
12893;DHT22;6514;48.606;9.222;2023-11-19T08:03:46;10.90;99.90
12893;DHT22;6514;48.606;9.222;2023-11-19T08:06:13;10.90;99.90
12893;DHT22;6514;48.606;9.222;2023-11-19T08:08:40;10.90;99.90
12893;DHT22;6514;48.606;9.222;2023-11-19T08:11:07;10.90;99.90
12893;DHT22;6514;48.606;9.222;2023-11-19T08:13:35;10.90;99.90
12893;DHT22;6514;48.606;9.222;2023-11-19T08:16:02;10.90;99.90
12893;DHT22;6514;48.606;9.222;2023-11-19T08:18:28;10.90;99.90
12893;DHT22;6514;48.606;9.222;2023-11-19T08:20:55;10.90;99.90
12893;DHT22;6514;48.606;9.222;2023-11-19T08:23:23;10.90;99.90
12893;DHT22;6514;48.606;9.222;2023-11-19T08:25:51;11.00;99.90
12893;DHT22;6514;48.606;9.222;2023-11-19T08:28:18;11.00;99.90
12893;DHT22;6514;48.606;9.222;2023-11-19T08:30:46;11.00;99.90
12893;DHT22;6514;48.606;9.222;2023-11-19T08:33:13;11.00;99.90
12893;DHT22;6514;48.606;9.222;2023-11-19T08:35:40;11.10;99.90
12893;DHT22;6514;48.606;9.222;2023-11-19T08:38:07;11.10;99.90
12893;DHT22;6514;48.606;9.222;2023-11-19T08:40:34;11.20;99.90
12893;DHT22;6514;48.606;9.222;2023-11-19T08:43:00;11.20;99.90
12893;DHT22;6514;48.606;9.222;2023-11-19T08:45:27;11.20;99.90
12893;DHT22;6514;48.606;9.222;2023-11-19T08:47:55;11.20;99.90
12893;DHT22;6514;48.606;9.222;2023-11-19T08:50:22;11.20;99.90
12893;DHT22;6514;48.606;9.222;2023-11-19T08:52:49;11.30;99.90
12893;DHT22;6514;48.606;9.222;2023-11-19T08:55:16;11.60;99.90
12893;DHT22;6514;48.606;9.222;2023-11-19T08:57:43;12.10;99.90
12893;DHT22;6514;48.606;9.222;2023-11-19T09:00:11;12.70;99.90
12893;DHT22;6514;48.606;9.222;2023-11-19T09:02:39;13.00;99.90
12893;DHT22;6514;48.606;9.222;2023-11-19T09:05:08;13.00;99.90
12893;DHT22;6514;48.606;9.222;2023-11-19T09:07:35;13.10;99.90
12893;DHT22;6514;48.606;9.222;2023-11-19T09:10:02;13.10;99.90
12893;DHT22;6514;48.606;9.222;2023-11-19T09:12:30;13.10;99.90
12893;DHT22;6514;48.606;9.222;2023-11-19T09:14:57;13.00;99.90
12893;DHT22;6514;48.606;9.222;2023-11-19T09:17:24;13.10;99.90
12893;DHT22;6514;48.606;9.222;2023-11-19T09:19:51;13.20;99.90
12893;DHT22;6514;48.606;9.222;2023-11-19T09:22:19;13.20;99.90
12893;DHT22;6514;48.606;9.222;2023-11-19T09:24:46;13.30;99.90
12893;DHT22;6514;48.606;9.222;2023-11-19T09:27:13;13.30;99.90
12893;DHT22;6514;48.606;9.222;2023-11-19T09:29:40;13.40;99.90
12893;DHT22;6514;48.606;9.222;2023-11-19T09:32:08;13.40;99.90
12893;DHT22;6514;48.606;9.222;2023-11-19T09:34:35;13.40;99.90
12893;DHT22;6514;48.606;9.222;2023-11-19T09:37:02;13.50;99.90
12893;DHT22;6514;48.606;9.222;2023-11-19T09:39:30;13.50;99.90
12893;DHT22;6514;48.606;9.222;2023-11-19T09:41:57;13.70;99.90
12893;DHT22;6514;48.606;9.222;2023-11-19T09:44:24;13.70;99.90
12893;DHT22;6514;48.606;9.222;2023-11-19T09:46:52;13.80;99.90
12893;DHT22;6514;48.606;9.222;2023-11-19T09:49:21;13.70;99.90
12893;DHT22;6514;48.606;9.222;2023-11-19T09:51:49;13.60;99.90
12893;DHT22;6514;48.606;9.222;2023-11-19T09:54:16;13.50;99.90
12893;DHT22;6514;48.606;9.222;2023-11-19T09:56:44;13.40;99.90
12893;DHT22;6514;48.606;9.222;2023-11-19T09:59:11;13.40;99.90
12893;DHT22;6514;48.606;9.222;2023-11-19T10:01:38;13.50;99.90
12893;DHT22;6514;48.606;9.222;2023-11-19T10:04:06;13.50;99.90
12893;DHT22;6514;48.606;9.222;2023-11-19T10:06:33;13.40;99.90
12893;DHT22;6514;48.606;9.222;2023-11-19T10:08:59;13.40;99.90
12893;DHT22;6514;48.606;9.222;2023-11-19T10:11:26;13.40;99.90
12893;DHT22;6514;48.606;9.222;2023-11-19T10:13:55;13.50;99.90
12893;DHT22;6514;48.606;9.222;2023-11-19T10:16:28;13.60;99.90
12893;DHT22;6514;48.606;9.222;2023-11-19T10:18:56;13.70;99.90
12893;DHT22;6514;48.606;9.222;2023-11-19T10:21:23;13.80;99.90
12893;DHT22;6514;48.606;9.222;2023-11-19T10:23:51;14.00;99.90
12893;DHT22;6514;48.606;9.222;2023-11-19T10:26:20;14.10;99.90
12893;DHT22;6514;48.606;9.222;2023-11-19T10:28:47;14.20;99.90
12893;DHT22;6514;48.606;9.222;2023-11-19T10:31:16;14.20;99.90
12893;DHT22;6514;48.606;9.222;2023-11-19T10:33:43;14.20;99.90
12893;DHT22;6514;48.606;9.222;2023-11-19T10:36:11;14.20;99.90
12893;DHT22;6514;48.606;9.222;2023-11-19T10:38:39;14.20;99.90
12893;DHT22;6514;48.606;9.222;2023-11-19T10:41:06;14.20;99.90
12893;DHT22;6514;48.606;9.222;2023-11-19T10:43:42;14.10;99.90
12893;DHT22;6514;48.606;9.222;2023-11-19T10:46:10;14.00;99.90
12893;DHT22;6514;48.606;9.222;2023-11-19T10:48:39;14.10;99.90
12893;DHT22;6514;48.606;9.222;2023-11-19T10:51:06;14.40;99.90
12893;DHT22;6514;48.606;9.222;2023-11-19T10:53:36;14.60;99.90
12893;DHT22;6514;48.606;9.222;2023-11-19T10:56:06;14.80;99.90
12893;DHT22;6514;48.606;9.222;2023-11-19T10:58:37;14.90;99.90
12893;DHT22;6514;48.606;9.222;2023-11-19T11:01:11;14.90;99.90
12893;DHT22;6514;48.606;9.222;2023-11-19T11:03:41;14.80;99.90
12893;DHT22;6514;48.606;9.222;2023-11-19T11:06:09;14.70;99.90
12893;DHT22;6514;48.606;9.222;2023-11-19T11:08:37;14.80;99.90
12893;DHT22;6514;48.606;9.222;2023-11-19T11:11:06;14.80;99.90
12893;DHT22;6514;48.606;9.222;2023-11-19T11:13:34;14.80;99.90
12893;DHT22;6514;48.606;9.222;2023-11-19T11:16:04;14.90;99.90
12893;DHT22;6514;48.606;9.222;2023-11-19T11:18:33;15.10;99.90
12893;DHT22;6514;48.606;9.222;2023-11-19T11:21:03;15.10;99.90
12893;DHT22;6514;48.606;9.222;2023-11-19T11:23:44;15.10;99.90
12893;DHT22;6514;48.606;9.222;2023-11-19T11:26:34;15.10;99.90
12893;DHT22;6514;48.606;9.222;2023-11-19T11:29:05;15.20;99.90
12893;DHT22;6514;48.606;9.222;2023-11-19T11:31:41;15.10;99.90
12893;DHT22;6514;48.606;9.222;2023-11-19T11:34:34;15.10;99.90
12893;DHT22;6514;48.606;9.222;2023-11-19T11:37:18;15.20;99.90
12893;DHT22;6514;48.606;9.222;2023-11-19T11:39:46;15.20;99.90
12893;DHT22;6514;48.606;9.222;2023-11-19T11:42:33;15.20;99.90
12893;DHT22;6514;48.606;9.222;2023-11-19T11:45:00;15.10;99.90
12893;DHT22;6514;48.606;9.222;2023-11-19T11:50:29;15.10;99.90
12893;DHT22;6514;48.606;9.222;2023-11-19T11:53:17;15.20;99.90
12893;DHT22;6514;48.606;9.222;2023-11-19T11:55:55;15.20;99.90
12893;DHT22;6514;48.606;9.222;2023-11-19T11:58:32;15.40;99.90
12893;DHT22;6514;48.606;9.222;2023-11-19T12:01:00;15.50;99.90
12893;DHT22;6514;48.606;9.222;2023-11-19T12:03:28;15.70;99.90
12893;DHT22;6514;48.606;9.222;2023-11-19T12:05:57;15.60;99.90
12893;DHT22;6514;48.606;9.222;2023-11-19T12:08:27;15.60;99.90
12893;DHT22;6514;48.606;9.222;2023-11-19T12:10:56;15.60;99.90
12893;DHT22;6514;48.606;9.222;2023-11-19T12:13:26;15.60;99.90
12893;DHT22;6514;48.606;9.222;2023-11-19T12:16:07;15.50;99.90
12893;DHT22;6514;48.606;9.222;2023-11-19T12:18:34;15.40;99.90
12893;DHT22;6514;48.606;9.222;2023-11-19T12:21:01;15.20;99.90
12893;DHT22;6514;48.606;9.222;2023-11-19T12:23:30;14.90;99.90
12893;DHT22;6514;48.606;9.222;2023-11-19T12:25:58;14.80;99.90
12893;DHT22;6514;48.606;9.222;2023-11-19T12:28:25;14.90;99.90
12893;DHT22;6514;48.606;9.222;2023-11-19T12:30:52;14.90;99.90
12893;DHT22;6514;48.606;9.222;2023-11-19T12:33:20;14.90;99.90
12893;DHT22;6514;48.606;9.222;2023-11-19T12:35:47;15.00;99.90
12893;DHT22;6514;48.606;9.222;2023-11-19T12:38:21;15.10;99.90
12893;DHT22;6514;48.606;9.222;2023-11-19T12:41:04;15.20;99.90
12893;DHT22;6514;48.606;9.222;2023-11-19T12:43:31;15.20;99.90
12893;DHT22;6514;48.606;9.222;2023-11-19T12:45:59;15.00;99.90
12893;DHT22;6514;48.606;9.222;2023-11-19T12:48:26;15.00;99.90
12893;DHT22;6514;48.606;9.222;2023-11-19T12:50:53;14.90;99.90
12893;DHT22;6514;48.606;9.222;2023-11-19T12:53:21;14.80;99.90
12893;DHT22;6514;48.606;9.222;2023-11-19T12:55:48;14.70;99.90
12893;DHT22;6514;48.606;9.222;2023-11-19T12:58:33;14.70;99.90
12893;DHT22;6514;48.606;9.222;2023-11-19T13:01:00;14.60;99.90
12893;DHT22;6514;48.606;9.222;2023-11-19T13:03:31;14.60;99.90
12893;DHT22;6514;48.606;9.222;2023-11-19T13:06:07;14.60;99.90
12893;DHT22;6514;48.606;9.222;2023-11-19T13:08:38;14.60;99.90
12893;DHT22;6514;48.606;9.222;2023-11-19T13:11:05;14.70;99.90
12893;DHT22;6514;48.606;9.222;2023-11-19T13:13:53;14.70;99.90
12893;DHT22;6514;48.606;9.222;2023-11-19T13:16:20;14.70;99.90
12893;DHT22;6514;48.606;9.222;2023-11-19T13:18:47;14.60;99.90
12893;DHT22;6514;48.606;9.222;2023-11-19T13:21:14;14.60;99.90
12893;DHT22;6514;48.606;9.222;2023-11-19T13:23:41;14.60;99.90
12893;DHT22;6514;48.606;9.222;2023-11-19T13:26:08;14.60;99.90
12893;DHT22;6514;48.606;9.222;2023-11-19T13:28:36;14.70;99.90
12893;DHT22;6514;48.606;9.222;2023-11-19T13:31:03;14.70;99.90
12893;DHT22;6514;48.606;9.222;2023-11-19T13:33:30;14.60;99.90
12893;DHT22;6514;48.606;9.222;2023-11-19T13:35:57;14.70;99.90
12893;DHT22;6514;48.606;9.222;2023-11-19T13:38:25;14.70;99.90
12893;DHT22;6514;48.606;9.222;2023-11-19T13:40:52;14.60;99.90
12893;DHT22;6514;48.606;9.222;2023-11-19T13:43:19;14.60;99.90
12893;DHT22;6514;48.606;9.222;2023-11-19T13:45:47;14.60;99.90
12893;DHT22;6514;48.606;9.222;2023-11-19T13:48:14;14.50;99.90
12893;DHT22;6514;48.606;9.222;2023-11-19T13:50:40;14.40;99.90
12893;DHT22;6514;48.606;9.222;2023-11-19T13:53:08;14.30;99.90
12893;DHT22;6514;48.606;9.222;2023-11-19T13:55:34;14.10;99.90
12893;DHT22;6514;48.606;9.222;2023-11-19T13:58:01;14.00;99.90
12893;DHT22;6514;48.606;9.222;2023-11-19T14:00:28;13.80;99.90
12893;DHT22;6514;48.606;9.222;2023-11-19T14:02:56;13.70;99.90
12893;DHT22;6514;48.606;9.222;2023-11-19T14:05:23;13.60;99.90
12893;DHT22;6514;48.606;9.222;2023-11-19T14:07:50;13.60;99.90
12893;DHT22;6514;48.606;9.222;2023-11-19T14:10:17;13.50;99.90
12893;DHT22;6514;48.606;9.222;2023-11-19T14:12:44;13.40;99.90
12893;DHT22;6514;48.606;9.222;2023-11-19T14:15:11;13.30;99.90
12893;DHT22;6514;48.606;9.222;2023-11-19T14:17:39;13.30;99.90
12893;DHT22;6514;48.606;9.222;2023-11-19T14:20:08;13.20;99.90
12893;DHT22;6514;48.606;9.222;2023-11-19T14:22:38;13.20;99.90
12893;DHT22;6514;48.606;9.222;2023-11-19T14:25:06;13.20;99.90
12893;DHT22;6514;48.606;9.222;2023-11-19T14:27:35;13.20;99.90
12893;DHT22;6514;48.606;9.222;2023-11-19T14:30:04;13.10;99.90
12893;DHT22;6514;48.606;9.222;2023-11-19T14:32:31;13.00;99.90
12893;DHT22;6514;48.606;9.222;2023-11-19T14:34:57;13.10;99.90
12893;DHT22;6514;48.606;9.222;2023-11-19T14:37:26;13.20;99.90
12893;DHT22;6514;48.606;9.222;2023-11-19T14:39:52;13.20;99.90
12893;DHT22;6514;48.606;9.222;2023-11-19T14:42:19;13.20;99.90
12893;DHT22;6514;48.606;9.222;2023-11-19T14:44:46;13.20;99.90
12893;DHT22;6514;48.606;9.222;2023-11-19T14:47:13;13.20;99.90
12893;DHT22;6514;48.606;9.222;2023-11-19T14:49:40;13.10;99.90
12893;DHT22;6514;48.606;9.222;2023-11-19T14:52:06;13.10;99.90
12893;DHT22;6514;48.606;9.222;2023-11-19T14:54:35;13.00;99.90
12893;DHT22;6514;48.606;9.222;2023-11-19T14:57:01;13.10;99.90
12893;DHT22;6514;48.606;9.222;2023-11-19T14:59:28;13.00;99.90
12893;DHT22;6514;48.606;9.222;2023-11-19T15:01:55;13.00;99.90
12893;DHT22;6514;48.606;9.222;2023-11-19T15:04:21;13.00;99.90
12893;DHT22;6514;48.606;9.222;2023-11-19T15:06:48;12.90;99.90
12893;DHT22;6514;48.606;9.222;2023-11-19T15:09:14;12.90;99.90
12893;DHT22;6514;48.606;9.222;2023-11-19T15:11:43;12.80;99.90
12893;DHT22;6514;48.606;9.222;2023-11-19T15:14:11;12.70;99.90
12893;DHT22;6514;48.606;9.222;2023-11-19T15:16:40;12.60;99.90
12893;DHT22;6514;48.606;9.222;2023-11-19T15:19:07;12.60;99.90
12893;DHT22;6514;48.606;9.222;2023-11-19T15:21:34;12.50;99.90
12893;DHT22;6514;48.606;9.222;2023-11-19T15:24:01;12.40;99.90
12893;DHT22;6514;48.606;9.222;2023-11-19T15:26:30;12.40;99.90
12893;DHT22;6514;48.606;9.222;2023-11-19T15:28:58;12.30;99.90
12893;DHT22;6514;48.606;9.222;2023-11-19T15:31:25;12.20;99.90
12893;DHT22;6514;48.606;9.222;2023-11-19T15:33:51;12.10;99.90
12893;DHT22;6514;48.606;9.222;2023-11-19T15:36:18;12.10;99.90
12893;DHT22;6514;48.606;9.222;2023-11-19T15:38:45;12.00;99.90
12893;DHT22;6514;48.606;9.222;2023-11-19T15:41:12;12.00;99.90
12893;DHT22;6514;48.606;9.222;2023-11-19T15:43:39;12.00;99.90
12893;DHT22;6514;48.606;9.222;2023-11-19T15:46:08;12.00;99.90
12893;DHT22;6514;48.606;9.222;2023-11-19T15:48:34;11.90;99.90
12893;DHT22;6514;48.606;9.222;2023-11-19T15:51:01;11.90;99.90
12893;DHT22;6514;48.606;9.222;2023-11-19T15:53:29;11.70;99.90
12893;DHT22;6514;48.606;9.222;2023-11-19T15:55:56;11.60;99.90
12893;DHT22;6514;48.606;9.222;2023-11-19T15:58:23;11.60;99.90